Sugar Grove, Virginia
Current Conditions -  °F | °C
As of 1:15 AM on Monday 26 Jan 2015 (Local Time) from KMKJ Reporting Station
Broken Clouds Broken Clouds  
Wind Chill: 35°   Ceiling: 6000
Heat Index: 38°   Visibility: 10mi
Dew Point: 30°   Wind: 5mph
Humidity: 72%   Direction: 40°NE
Pressure: 29.66"   Gusts: NA
Location:  36.78°N, 81.41°W
Report Text: KMKJ 260615Z AUTO 04004KT 10SM BKN060 04/M01 A2966 RMK AO2 T00361010
Loading
Personal Weather Stations






























Interactive Weather Map New forecast layout! Learn more

10-Day Weather Forecast

Advertisements
Track Severe Weather on mobile